Terminal Aerodrome Forecast
Issued by NWS Bismarck, ND

Home | Current Version | Previous Version | Graphics & Text | Print | Product List | Glossary On
Versions: 1 2 3 4 5 6 7 8 9 10 11 12 13
000
FTUS43 KBIS 170530
TAFBIS
TAF
KBIS 170530Z 1706/1806 VRB03KT P6SM SKC
     FM171200 26006KT P6SM FEW100 WS020/30035KT
     FM171600 28009KT P6SM SCT100 WS020/30040KT
     FM171900 28013KT P6SM SCT250
     FM180100 26006KT P6SM FEW150=

USA.gov is the U.S. government's official web portal to all federal, state and local government web resources and services.